sensor_id;sensor_type;location;lat;lon;timestamp;pressure;altitude;pressure_sealevel;temperature;humidity
21988;BME280;11158;53.404;-1.510;2023-03-18T00:00:09;99234.34;;;15.64;55.72
21988;BME280;11158;53.404;-1.510;2023-03-18T00:02:54;99225.72;;;15.62;55.92
21988;BME280;11158;53.404;-1.510;2023-03-18T00:05:38;99229.16;;;15.75;55.51
21988;BME280;11158;53.404;-1.510;2023-03-18T00:08:22;99229.22;;;15.63;55.93
21988;BME280;11158;53.404;-1.510;2023-03-18T00:11:08;99227.19;;;15.53;56.04
21988;BME280;11158;53.404;-1.510;2023-03-18T00:13:54;99220.31;;;15.62;55.86
21988;BME280;11158;53.404;-1.510;2023-03-18T00:16:38;99228.97;;;15.47;56.33
21988;BME280;11158;53.404;-1.510;2023-03-18T00:19:23;99224.13;;;15.66;55.86
21988;BME280;11158;53.404;-1.510;2023-03-18T00:22:11;99230.41;;;15.55;56.02
21988;BME280;11158;53.404;-1.510;2023-03-18T00:24:55;99237.63;;;15.33;56.99
21988;BME280;11158;53.404;-1.510;2023-03-18T00:27:40;99236.97;;;15.42;56.70
21988;BME280;11158;53.404;-1.510;2023-03-18T00:30:24;99231.59;;;15.42;56.52
21988;BME280;11158;53.404;-1.510;2023-03-18T00:33:09;99234.03;;;15.44;56.52
21988;BME280;11158;53.404;-1.510;2023-03-18T00:35:54;99234.25;;;15.25;56.99
21988;BME280;11158;53.404;-1.510;2023-03-18T00:38:39;99237.44;;;15.22;57.42
21988;BME280;11158;53.404;-1.510;2023-03-18T00:41:29;99229.03;;;15.36;56.96
21988;BME280;11158;53.404;-1.510;2023-03-18T00:44:15;99237.44;;;15.22;57.26
21988;BME280;11158;53.404;-1.510;2023-03-18T00:47:00;99232.97;;;14.82;58.38
21988;BME280;11158;53.404;-1.510;2023-03-18T00:49:44;99229.44;;;15.27;57.52
21988;BME280;11158;53.404;-1.510;2023-03-18T00:52:29;99239.09;;;15.23;57.33
21988;BME280;11158;53.404;-1.510;2023-03-18T00:55:13;99241.69;;;15.52;56.70
21988;BME280;11158;53.404;-1.510;2023-03-18T00:57:58;99234.09;;;15.66;56.06
21988;BME280;11158;53.404;-1.510;2023-03-18T01:00:42;99240.41;;;15.88;55.67
21988;BME280;11158;53.404;-1.510;2023-03-18T01:03:26;99237.19;;;16.08;55.13
21988;BME280;11158;53.404;-1.510;2023-03-18T01:06:12;99230.94;;;16.25;54.76
21988;BME280;11158;53.404;-1.510;2023-03-18T01:08:57;99234.13;;;16.22;54.78
21988;BME280;11158;53.404;-1.510;2023-03-18T01:11:41;99236.03;;;16.04;55.43
21988;BME280;11158;53.404;-1.510;2023-03-18T01:14:26;99236.78;;;16.00;55.85
21988;BME280;11158;53.404;-1.510;2023-03-18T01:17:10;99237.25;;;16.13;55.34
21988;BME280;11158;53.404;-1.510;2023-03-18T01:19:54;99227.72;;;16.28;55.12
21988;BME280;11158;53.404;-1.510;2023-03-18T01:22:39;99228.06;;;16.31;54.45
21988;BME280;11158;53.404;-1.510;2023-03-18T01:25:26;99230.13;;;16.24;54.59
21988;BME280;11158;53.404;-1.510;2023-03-18T01:28:12;99231.00;;;16.30;54.91
21988;BME280;11158;53.404;-1.510;2023-03-18T01:30:57;99229.38;;;16.29;54.80
21988;BME280;11158;53.404;-1.510;2023-03-18T01:33:41;99226.13;;;15.88;55.86
21988;BME280;11158;53.404;-1.510;2023-03-18T01:36:25;99232.22;;;16.00;55.92
21988;BME280;11158;53.404;-1.510;2023-03-18T01:39:11;99225.97;;;16.17;55.32
21988;BME280;11158;53.404;-1.510;2023-03-18T01:41:55;99227.16;;;16.04;55.50
21988;BME280;11158;53.404;-1.510;2023-03-18T01:44:40;99228.94;;;16.15;55.29
21988;BME280;11158;53.404;-1.510;2023-03-18T01:47:25;99234.97;;;16.05;55.72
21988;BME280;11158;53.404;-1.510;2023-03-18T01:50:10;99225.97;;;16.17;55.33
21988;BME280;11158;53.404;-1.510;2023-03-18T01:52:58;99219.44;;;16.12;55.57
21988;BME280;11158;53.404;-1.510;2023-03-18T01:55:44;99225.19;;;15.99;55.87
21988;BME280;11158;53.404;-1.510;2023-03-18T01:58:37;99218.16;;;15.98;56.14
21988;BME280;11158;53.404;-1.510;2023-03-18T02:04:10;99220.84;;;16.15;54.91
21988;BME280;11158;53.404;-1.510;2023-03-18T02:06:56;99217.25;;;16.09;55.69
21988;BME280;11158;53.404;-1.510;2023-03-18T02:09:41;99222.13;;;16.12;55.43
21988;BME280;11158;53.404;-1.510;2023-03-18T02:12:32;99220.22;;;16.30;55.11
21988;BME280;11158;53.404;-1.510;2023-03-18T02:15:19;99214.75;;;16.25;54.87
21988;BME280;11158;53.404;-1.510;2023-03-18T02:18:12;99222.69;;;16.15;55.53
21988;BME280;11158;53.404;-1.510;2023-03-18T02:24:30;99202.59;;;16.22;55.17
21988;BME280;11158;53.404;-1.510;2023-03-18T02:27:25;99214.81;;;16.30;55.11
21988;BME280;11158;53.404;-1.510;2023-03-18T02:30:17;99212.69;;;16.32;55.30
21988;BME280;11158;53.404;-1.510;2023-03-18T02:33:04;99208.66;;;16.34;55.20
21988;BME280;11158;53.404;-1.510;2023-03-18T02:35:53;99207.91;;;16.39;54.74
21988;BME280;11158;53.404;-1.510;2023-03-18T02:38:43;99209.91;;;16.05;55.88
21988;BME280;11158;53.404;-1.510;2023-03-18T02:41:31;99211.44;;;16.18;55.57
21988;BME280;11158;53.404;-1.510;2023-03-18T02:44:18;99217.13;;;15.82;56.68
21988;BME280;11158;53.404;-1.510;2023-03-18T02:47:10;99218.88;;;15.72;57.30
21988;BME280;11158;53.404;-1.510;2023-03-18T02:49:56;99223.78;;;16.13;56.30
21988;BME280;11158;53.404;-1.510;2023-03-18T02:52:40;99210.13;;;16.20;55.70
21988;BME280;11158;53.404;-1.510;2023-03-18T02:55:25;99217.56;;;16.13;55.99
21988;BME280;11158;53.404;-1.510;2023-03-18T02:58:09;99219.19;;;15.92;56.75
21988;BME280;11158;53.404;-1.510;2023-03-18T03:00:53;99214.53;;;16.09;55.88
21988;BME280;11158;53.404;-1.510;2023-03-18T03:03:38;99212.75;;;16.15;55.87
21988;BME280;11158;53.404;-1.510;2023-03-18T03:06:23;99211.56;;;16.06;56.01
21988;BME280;11158;53.404;-1.510;2023-03-18T03:09:11;99215.91;;;15.90;56.29
21988;BME280;11158;53.404;-1.510;2023-03-18T03:11:56;99213.84;;;16.19;55.89
21988;BME280;11158;53.404;-1.510;2023-03-18T03:14:40;99209.94;;;15.54;57.33
21988;BME280;11158;53.404;-1.510;2023-03-18T03:17:25;99216.56;;;15.97;56.18
21988;BME280;11158;53.404;-1.510;2023-03-18T03:20:09;99213.50;;;16.10;55.83
21988;BME280;11158;53.404;-1.510;2023-03-18T03:22:54;99205.16;;;16.34;55.25
21988;BME280;11158;53.404;-1.510;2023-03-18T03:25:38;99209.56;;;16.40;55.16
21988;BME280;11158;53.404;-1.510;2023-03-18T03:28:23;99214.56;;;16.53;54.94
21988;BME280;11158;53.404;-1.510;2023-03-18T03:31:07;99207.09;;;16.39;54.79
21988;BME280;11158;53.404;-1.510;2023-03-18T03:33:53;99209.72;;;16.55;54.63
21988;BME280;11158;53.404;-1.510;2023-03-18T03:36:38;99205.78;;;16.63;54.34
21988;BME280;11158;53.404;-1.510;2023-03-18T03:39:22;99209.94;;;16.76;53.96
21988;BME280;11158;53.404;-1.510;2023-03-18T03:42:07;99205.03;;;16.68;53.89
21988;BME280;11158;53.404;-1.510;2023-03-18T03:44:51;99207.81;;;16.78;53.89
21988;BME280;11158;53.404;-1.510;2023-03-18T03:47:35;99216.44;;;16.75;54.02
21988;BME280;11158;53.404;-1.510;2023-03-18T03:50:19;99214.38;;;16.82;53.90
21988;BME280;11158;53.404;-1.510;2023-03-18T03:53:04;99217.88;;;16.83;53.36
21988;BME280;11158;53.404;-1.510;2023-03-18T03:55:49;99225.28;;;16.70;53.80
21988;BME280;11158;53.404;-1.510;2023-03-18T03:58:35;99229.34;;;16.51;54.28
21988;BME280;11158;53.404;-1.510;2023-03-18T04:01:19;99230.44;;;16.50;54.17
21988;BME280;11158;53.404;-1.510;2023-03-18T04:04:03;99225.03;;;15.89;55.51
21988;BME280;11158;53.404;-1.510;2023-03-18T04:06:48;99226.41;;;16.08;55.31
21988;BME280;11158;53.404;-1.510;2023-03-18T04:09:32;99230.41;;;16.06;55.49
21988;BME280;11158;53.404;-1.510;2023-03-18T04:12:17;99232.94;;;16.34;54.71
21988;BME280;11158;53.404;-1.510;2023-03-18T04:15:03;99227.34;;;16.41;54.25
21988;BME280;11158;53.404;-1.510;2023-03-18T04:17:48;99225.09;;;16.55;53.76
21988;BME280;11158;53.404;-1.510;2023-03-18T04:20:34;99219.50;;;16.40;54.21
21988;BME280;11158;53.404;-1.510;2023-03-18T04:23:18;99226.38;;;16.47;54.36
21988;BME280;11158;53.404;-1.510;2023-03-18T04:26:04;99216.56;;;16.41;54.40
21988;BME280;11158;53.404;-1.510;2023-03-18T04:28:48;99221.72;;;16.43;54.16
21988;BME280;11158;53.404;-1.510;2023-03-18T04:31:32;99227.50;;;16.29;54.61
21988;BME280;11158;53.404;-1.510;2023-03-18T04:34:17;99223.41;;;16.49;54.11
21988;BME280;11158;53.404;-1.510;2023-03-18T04:37:02;99221.06;;;16.58;53.79
21988;BME280;11158;53.404;-1.510;2023-03-18T04:39:47;99226.03;;;16.44;54.00
21988;BME280;11158;53.404;-1.510;2023-03-18T04:42:31;99237.75;;;16.10;54.42
21988;BME280;11158;53.404;-1.510;2023-03-18T04:45:16;99229.66;;;16.10;54.75
21988;BME280;11158;53.404;-1.510;2023-03-18T04:48:00;99230.22;;;16.12;54.73
21988;BME280;11158;53.404;-1.510;2023-03-18T04:50:45;99243.16;;;16.10;55.03
21988;BME280;11158;53.404;-1.510;2023-03-18T04:53:29;99247.03;;;16.20;54.68
21988;BME280;11158;53.404;-1.510;2023-03-18T04:56:14;99249.75;;;16.20;54.39
21988;BME280;11158;53.404;-1.510;2023-03-18T04:58:58;99246.88;;;16.09;54.75
21988;BME280;11158;53.404;-1.510;2023-03-18T05:01:42;99251.16;;;15.55;55.96
21988;BME280;11158;53.404;-1.510;2023-03-18T05:04:26;99252.53;;;15.57;56.17
21988;BME280;11158;53.404;-1.510;2023-03-18T05:07:14;99260.38;;;15.42;56.71
21988;BME280;11158;53.404;-1.510;2023-03-18T05:09:59;99257.03;;;15.68;55.59
21988;BME280;11158;53.404;-1.510;2023-03-18T05:12:43;99256.91;;;15.75;55.47
21988;BME280;11158;53.404;-1.510;2023-03-18T05:15:28;99256.06;;;15.91;54.85
21988;BME280;11158;53.404;-1.510;2023-03-18T05:18:12;99260.59;;;16.25;54.32
21988;BME280;11158;53.404;-1.510;2023-03-18T05:20:56;99261.91;;;16.44;53.73
21988;BME280;11158;53.404;-1.510;2023-03-18T05:23:42;99260.72;;;15.96;54.62
21988;BME280;11158;53.404;-1.510;2023-03-18T05:26:26;99262.06;;;15.14;57.47
21988;BME280;11158;53.404;-1.510;2023-03-18T05:29:11;99272.22;;;15.41;57.04
21988;BME280;11158;53.404;-1.510;2023-03-18T05:31:55;99266.69;;;15.98;55.37
21988;BME280;11158;53.404;-1.510;2023-03-18T05:34:39;99263.06;;;16.09;54.83
21988;BME280;11158;53.404;-1.510;2023-03-18T05:37:23;99264.88;;;15.87;55.12
21988;BME280;11158;53.404;-1.510;2023-03-18T05:40:08;99261.84;;;16.00;55.29
21988;BME280;11158;53.404;-1.510;2023-03-18T05:42:55;99277.44;;;15.98;55.14
21988;BME280;11158;53.404;-1.510;2023-03-18T05:45:39;99279.69;;;16.01;55.05
21988;BME280;11158;53.404;-1.510;2023-03-18T05:48:23;99283.78;;;16.26;54.26
21988;BME280;11158;53.404;-1.510;2023-03-18T05:51:08;99284.00;;;16.02;54.55
21988;BME280;11158;53.404;-1.510;2023-03-18T05:53:52;99291.81;;;15.53;56.11
21988;BME280;11158;53.404;-1.510;2023-03-18T05:56:36;99287.25;;;15.54;56.04
21988;BME280;11158;53.404;-1.510;2023-03-18T05:59:21;99294.91;;;15.45;56.65
21988;BME280;11158;53.404;-1.510;2023-03-18T06:02:06;99295.44;;;15.93;55.11
21988;BME280;11158;53.404;-1.510;2023-03-18T06:04:50;99286.22;;;15.72;55.45
21988;BME280;11158;53.404;-1.510;2023-03-18T06:07:35;99293.97;;;15.85;55.44
21988;BME280;11158;53.404;-1.510;2023-03-18T06:10:21;99297.72;;;15.84;55.22
21988;BME280;11158;53.404;-1.510;2023-03-18T06:13:05;99292.72;;;16.09;54.77
21988;BME280;11158;53.404;-1.510;2023-03-18T06:15:58;99294.22;;;16.39;54.05
21988;BME280;11158;53.404;-1.510;2023-03-18T06:18:42;99298.97;;;16.32;54.23
21988;BME280;11158;53.404;-1.510;2023-03-18T06:21:28;99301.88;;;16.47;53.87
21988;BME280;11158;53.404;-1.510;2023-03-18T06:24:14;99297.06;;;16.49;53.31
21988;BME280;11158;53.404;-1.510;2023-03-18T06:26:58;99308.03;;;16.65;53.16
21988;BME280;11158;53.404;-1.510;2023-03-18T06:29:42;99308.53;;;16.62;52.97
21988;BME280;11158;53.404;-1.510;2023-03-18T06:32:27;99303.84;;;16.52;53.50
21988;BME280;11158;53.404;-1.510;2023-03-18T06:35:13;99304.47;;;16.03;53.58
21988;BME280;11158;53.404;-1.510;2023-03-18T06:37:58;99310.13;;;15.85;54.61
21988;BME280;11158;53.404;-1.510;2023-03-18T06:40:43;99313.75;;;15.74;55.23
21988;BME280;11158;53.404;-1.510;2023-03-18T06:43:27;99316.75;;;16.11;54.21
21988;BME280;11158;53.404;-1.510;2023-03-18T06:46:11;99318.25;;;16.41;53.56
21988;BME280;11158;53.404;-1.510;2023-03-18T06:48:57;99317.84;;;16.32;53.87
21988;BME280;11158;53.404;-1.510;2023-03-18T06:51:42;99324.78;;;16.45;53.32
21988;BME280;11158;53.404;-1.510;2023-03-18T06:54:26;99329.38;;;16.66;52.91
21988;BME280;11158;53.404;-1.510;2023-03-18T06:57:11;99330.41;;;16.82;52.49
21988;BME280;11158;53.404;-1.510;2023-03-18T06:59:56;99332.25;;;16.21;53.37
21988;BME280;11158;53.404;-1.510;2023-03-18T07:02:41;99330.06;;;16.18;54.14
21988;BME280;11158;53.404;-1.510;2023-03-18T07:05:27;99328.41;;;16.55;53.35
21988;BME280;11158;53.404;-1.510;2023-03-18T07:08:11;99334.19;;;16.64;53.10
21988;BME280;11158;53.404;-1.510;2023-03-18T07:10:55;99333.69;;;16.84;52.79
21988;BME280;11158;53.404;-1.510;2023-03-18T07:13:40;99338.50;;;17.04;52.40
21988;BME280;11158;53.404;-1.510;2023-03-18T07:16:24;99344.94;;;16.81;52.88
21988;BME280;11158;53.404;-1.510;2023-03-18T07:19:09;99344.41;;;16.79;52.51
21988;BME280;11158;53.404;-1.510;2023-03-18T07:21:54;99344.72;;;17.05;52.41
21988;BME280;11158;53.404;-1.510;2023-03-18T07:24:38;99339.75;;;17.46;51.30
21988;BME280;11158;53.404;-1.510;2023-03-18T07:27:23;99343.16;;;17.63;50.88
21988;BME280;11158;53.404;-1.510;2023-03-18T07:30:07;99342.72;;;17.76;50.91
21988;BME280;11158;53.404;-1.510;2023-03-18T07:32:55;99343.44;;;16.90;52.38
21988;BME280;11158;53.404;-1.510;2023-03-18T07:35:40;99341.41;;;17.52;51.45
21988;BME280;11158;53.404;-1.510;2023-03-18T07:38:24;99344.78;;;17.91;50.65
21988;BME280;11158;53.404;-1.510;2023-03-18T07:41:08;99338.63;;;18.38;49.74
21988;BME280;11158;53.404;-1.510;2023-03-18T07:43:53;99347.59;;;18.44;49.61
21988;BME280;11158;53.404;-1.510;2023-03-18T07:46:37;99355.72;;;18.44;49.28
21988;BME280;11158;53.404;-1.510;2023-03-18T07:49:22;99344.34;;;18.42;49.21
21988;BME280;11158;53.404;-1.510;2023-03-18T07:52:07;99344.91;;;18.49;49.36
21988;BME280;11158;53.404;-1.510;2023-03-18T07:54:52;99348.38;;;18.02;49.93
21988;BME280;11158;53.404;-1.510;2023-03-18T07:57:36;99345.72;;;17.48;50.89
21988;BME280;11158;53.404;-1.510;2023-03-18T08:00:21;99342.16;;;16.76;52.88
21988;BME280;11158;53.404;-1.510;2023-03-18T08:03:06;99345.91;;;16.92;52.61
21988;BME280;11158;53.404;-1.510;2023-03-18T08:05:50;99347.41;;;17.05;52.42
21988;BME280;11158;53.404;-1.510;2023-03-18T08:08:34;99350.06;;;17.00;52.39
21988;BME280;11158;53.404;-1.510;2023-03-18T08:11:19;99353.19;;;17.68;51.35
21988;BME280;11158;53.404;-1.510;2023-03-18T08:14:03;99354.56;;;17.70;50.81
21988;BME280;11158;53.404;-1.510;2023-03-18T08:16:47;99360.06;;;18.55;49.46
21988;BME280;11158;53.404;-1.510;2023-03-18T08:19:32;99360.03;;;18.45;49.79
21988;BME280;11158;53.404;-1.510;2023-03-18T08:22:16;99366.25;;;18.88;48.69
21988;BME280;11158;53.404;-1.510;2023-03-18T08:25:01;99363.56;;;18.98;47.74
21988;BME280;11158;53.404;-1.510;2023-03-18T08:27:45;99366.63;;;17.85;49.96
21988;BME280;11158;53.404;-1.510;2023-03-18T08:30:29;99372.19;;;18.42;49.09
21988;BME280;11158;53.404;-1.510;2023-03-18T08:33:15;99378.06;;;17.70;50.26
21988;BME280;11158;53.404;-1.510;2023-03-18T08:35:59;99374.44;;;17.59;50.69
21988;BME280;11158;53.404;-1.510;2023-03-18T08:38:44;99382.50;;;16.83;52.13
21988;BME280;11158;53.404;-1.510;2023-03-18T08:41:31;99379.19;;;16.42;53.17
21988;BME280;11158;53.404;-1.510;2023-03-18T08:44:16;99385.91;;;16.78;51.94
21988;BME280;11158;53.404;-1.510;2023-03-18T08:47:01;99381.44;;;17.06;52.45
21988;BME280;11158;53.404;-1.510;2023-03-18T08:49:44;99377.06;;;18.46;49.32
21988;BME280;11158;53.404;-1.510;2023-03-18T08:52:29;99374.69;;;19.02;47.59
21988;BME280;11158;53.404;-1.510;2023-03-18T08:55:13;99376.19;;;19.40;46.51
21988;BME280;11158;53.404;-1.510;2023-03-18T08:57:59;99367.59;;;19.69;46.04
21988;BME280;11158;53.404;-1.510;2023-03-18T09:00:43;99367.25;;;19.60;45.88
21988;BME280;11158;53.404;-1.510;2023-03-18T09:03:27;99362.13;;;19.64;45.42
21988;BME280;11158;53.404;-1.510;2023-03-18T09:06:12;99368.22;;;19.08;46.10
21988;BME280;11158;53.404;-1.510;2023-03-18T09:08:56;99379.56;;;18.52;47.50
21988;BME280;11158;53.404;-1.510;2023-03-18T09:11:41;99381.19;;;18.53;46.83
21988;BME280;11158;53.404;-1.510;2023-03-18T09:14:25;99385.72;;;18.42;47.76
21988;BME280;11158;53.404;-1.510;2023-03-18T09:17:10;99386.78;;;18.04;49.19
21988;BME280;11158;53.404;-1.510;2023-03-18T09:19:54;99379.28;;;18.49;48.19
21988;BME280;11158;53.404;-1.510;2023-03-18T09:22:41;99376.56;;;18.96;46.64
21988;BME280;11158;53.404;-1.510;2023-03-18T09:25:25;99384.63;;;19.54;46.07
21988;BME280;11158;53.404;-1.510;2023-03-18T09:28:10;99381.59;;;19.45;45.65
21988;BME280;11158;53.404;-1.510;2023-03-18T09:30:54;99379.78;;;19.97;44.52
21988;BME280;11158;53.404;-1.510;2023-03-18T09:33:39;99392.69;;;19.39;45.65
21988;BME280;11158;53.404;-1.510;2023-03-18T09:36:24;99384.94;;;19.73;45.12
21988;BME280;11158;53.404;-1.510;2023-03-18T09:39:09;99395.59;;;19.17;46.40
21988;BME280;11158;53.404;-1.510;2023-03-18T09:42:08;99396.72;;;18.73;47.52
21988;BME280;11158;53.404;-1.510;2023-03-18T09:45:02;99389.59;;;17.60;49.02
21988;BME280;11158;53.404;-1.510;2023-03-18T09:48:51;99395.06;;;18.25;49.30
21988;BME280;11158;53.404;-1.510;2023-03-18T09:54:07;99403.09;;;17.11;51.60
21988;BME280;11158;53.404;-1.510;2023-03-18T09:56:53;99395.88;;;18.25;49.35
21988;BME280;11158;53.404;-1.510;2023-03-18T09:59:46;99397.09;;;17.80;49.34
21988;BME280;11158;53.404;-1.510;2023-03-18T10:02:41;99397.16;;;18.17;48.53
21988;BME280;11158;53.404;-1.510;2023-03-18T10:05:34;99397.59;;;18.79;47.62
21988;BME280;11158;53.404;-1.510;2023-03-18T10:08:29;99393.91;;;19.05;46.25
21988;BME280;11158;53.404;-1.510;2023-03-18T10:11:24;99395.84;;;19.10;47.07
21988;BME280;11158;53.404;-1.510;2023-03-18T10:14:35;99388.47;;;18.95;46.89
21988;BME280;11158;53.404;-1.510;2023-03-18T10:17:40;99392.06;;;19.11;46.25
21988;BME280;11158;53.404;-1.510;2023-03-18T10:32:44;99394.56;;;21.02;42.74
21988;BME280;11158;53.404;-1.510;2023-03-18T10:35:41;99393.25;;;20.95;42.12
21988;BME280;11158;53.404;-1.510;2023-03-18T10:38:36;99400.16;;;20.30;42.61
21988;BME280;11158;53.404;-1.510;2023-03-18T10:41:37;99409.19;;;19.32;45.08
21988;BME280;11158;53.404;-1.510;2023-03-18T10:44:25;99407.94;;;19.65;44.33
21988;BME280;11158;53.404;-1.510;2023-03-18T10:47:25;99410.78;;;19.13;45.20
21988;BME280;11158;53.404;-1.510;2023-03-18T10:50:41;99401.78;;;20.01;43.75
21988;BME280;11158;53.404;-1.510;2023-03-18T10:53:35;99405.03;;;20.59;42.73
21988;BME280;11158;53.404;-1.510;2023-03-18T10:56:22;99392.97;;;20.96;41.57
21988;BME280;11158;53.404;-1.510;2023-03-18T10:59:14;99389.72;;;20.89;41.16
21988;BME280;11158;53.404;-1.510;2023-03-18T11:02:13;99393.28;;;20.79;41.42
21988;BME280;11158;53.404;-1.510;2023-03-18T11:05:11;99401.22;;;19.83;43.61
21988;BME280;11158;53.404;-1.510;2023-03-18T11:08:02;99402.50;;;19.50;44.20
21988;BME280;11158;53.404;-1.510;2023-03-18T11:10:47;99399.22;;;19.43;44.69
21988;BME280;11158;53.404;-1.510;2023-03-18T11:13:32;99392.03;;;20.00;43.28
21988;BME280;11158;53.404;-1.510;2023-03-18T11:19:46;99404.22;;;19.03;46.51
21988;BME280;11158;53.404;-1.510;2023-03-18T11:22:31;99402.06;;;19.05;45.82
21988;BME280;11158;53.404;-1.510;2023-03-18T11:25:21;99395.81;;;19.00;45.80
21988;BME280;11158;53.404;-1.510;2023-03-18T11:28:19;99408.34;;;19.21;46.02
21988;BME280;11158;53.404;-1.510;2023-03-18T11:31:04;99404.94;;;19.57;45.02
21988;BME280;11158;53.404;-1.510;2023-03-18T11:33:56;99390.66;;;19.92;43.63
21988;BME280;11158;53.404;-1.510;2023-03-18T11:36:40;99390.91;;;20.37;42.81
21988;BME280;11158;53.404;-1.510;2023-03-18T11:39:27;99391.47;;;20.59;42.84
21988;BME280;11158;53.404;-1.510;2023-03-18T11:42:18;99392.31;;;21.25;41.47
21988;BME280;11158;53.404;-1.510;2023-03-18T11:45:28;99389.03;;;21.23;39.52
21988;BME280;11158;53.404;-1.510;2023-03-18T11:48:39;99392.81;;;21.32;40.15
21988;BME280;11158;53.404;-1.510;2023-03-18T11:51:43;99384.34;;;21.44;39.42
21988;BME280;11158;53.404;-1.510;2023-03-18T12:15:42;99376.78;;;20.60;41.29
21988;BME280;11158;53.404;-1.510;2023-03-18T12:27:57;99373.66;;;21.08;39.82
21988;BME280;11158;53.404;-1.510;2023-03-18T12:33:40;99366.78;;;20.25;42.58
21988;BME280;11158;53.404;-1.510;2023-03-18T12:37:00;99373.63;;;21.13;40.93
21988;BME280;11158;53.404;-1.510;2023-03-18T12:45:38;99369.56;;;21.10;40.95
21988;BME280;11158;53.404;-1.510;2023-03-18T12:48:29;99374.84;;;21.46;40.09
21988;BME280;11158;53.404;-1.510;2023-03-18T12:51:21;99368.66;;;22.09;40.47
21988;BME280;11158;53.404;-1.510;2023-03-18T12:54:09;99367.44;;;22.26;40.00
21988;BME280;11158;53.404;-1.510;2023-03-18T12:57:06;99360.34;;;22.54;37.41
21988;BME280;11158;53.404;-1.510;2023-03-18T13:00:00;99364.22;;;23.01;36.83
21988;BME280;11158;53.404;-1.510;2023-03-18T13:02:59;99359.97;;;21.23;39.25
21988;BME280;11158;53.404;-1.510;2023-03-18T13:12:10;99355.50;;;21.48;39.85
21988;BME280;11158;53.404;-1.510;2023-03-18T13:15:31;99350.94;;;21.38;39.53
21988;BME280;11158;53.404;-1.510;2023-03-18T13:18:42;99346.59;;;21.32;39.02
21988;BME280;11158;53.404;-1.510;2023-03-18T13:21:38;99346.81;;;21.51;39.34
21988;BME280;11158;53.404;-1.510;2023-03-18T13:24:55;99341.03;;;21.97;38.83
21988;BME280;11158;53.404;-1.510;2023-03-18T13:42:59;99347.25;;;20.13;43.63
21988;BME280;11158;53.404;-1.510;2023-03-18T13:45:47;99355.88;;;19.53;44.25
21988;BME280;11158;53.404;-1.510;2023-03-18T13:48:34;99336.69;;;20.16;43.63
21988;BME280;11158;53.404;-1.510;2023-03-18T13:54:29;99353.44;;;19.52;44.23
21988;BME280;11158;53.404;-1.510;2023-03-18T14:00:24;99344.22;;;19.63;45.03
21988;BME280;11158;53.404;-1.510;2023-03-18T14:03:15;99340.97;;;20.38;42.53
21988;BME280;11158;53.404;-1.510;2023-03-18T14:08:52;99345.00;;;20.66;41.75
21988;BME280;11158;53.404;-1.510;2023-03-18T14:11:41;99338.13;;;20.89;40.91
21988;BME280;11158;53.404;-1.510;2023-03-18T14:14:52;99333.16;;;21.06;40.94
21988;BME280;11158;53.404;-1.510;2023-03-18T14:20:24;99338.25;;;21.68;38.11
21988;BME280;11158;53.404;-1.510;2023-03-18T14:23:36;99332.19;;;21.76;38.00
21988;BME280;11158;53.404;-1.510;2023-03-18T14:26:25;99328.91;;;21.79;37.58
21988;BME280;11158;53.404;-1.510;2023-03-18T14:31:58;99337.78;;;19.84;43.15
21988;BME280;11158;53.404;-1.510;2023-03-18T14:34:56;99339.75;;;20.90;41.13
21988;BME280;11158;53.404;-1.510;2023-03-18T14:40:49;99326.56;;;21.67;39.52
21988;BME280;11158;53.404;-1.510;2023-03-18T14:43:50;99318.31;;;21.78;39.58
21988;BME280;11158;53.404;-1.510;2023-03-18T14:46:38;99333.66;;;21.98;38.60
21988;BME280;11158;53.404;-1.510;2023-03-18T14:49:40;99324.84;;;22.11;38.17
21988;BME280;11158;53.404;-1.510;2023-03-18T14:52:33;99315.84;;;22.40;37.39
21988;BME280;11158;53.404;-1.510;2023-03-18T14:55:24;99319.28;;;22.74;37.07
21988;BME280;11158;53.404;-1.510;2023-03-18T14:58:15;99318.28;;;22.65;37.13
21988;BME280;11158;53.404;-1.510;2023-03-18T15:01:04;99326.06;;;23.01;35.55
21988;BME280;11158;53.404;-1.510;2023-03-18T15:03:51;99320.88;;;21.64;38.66
21988;BME280;11158;53.404;-1.510;2023-03-18T15:06:38;99314.59;;;21.68;36.54
21988;BME280;11158;53.404;-1.510;2023-03-18T15:09:26;99317.28;;;22.03;36.53
21988;BME280;11158;53.404;-1.510;2023-03-18T15:12:21;99315.81;;;20.97;38.47
21988;BME280;11158;53.404;-1.510;2023-03-18T15:15:15;99315.69;;;20.63;40.38
21988;BME280;11158;53.404;-1.510;2023-03-18T15:21:12;99319.53;;;20.46;37.59
21988;BME280;11158;53.404;-1.510;2023-03-18T15:24:01;99319.22;;;20.63;38.28
21988;BME280;11158;53.404;-1.510;2023-03-18T15:26:56;99319.03;;;20.19;39.65
21988;BME280;11158;53.404;-1.510;2023-03-18T15:29:50;99316.78;;;20.62;39.76
21988;BME280;11158;53.404;-1.510;2023-03-18T15:32:47;99320.75;;;20.90;39.87
21988;BME280;11158;53.404;-1.510;2023-03-18T15:35:33;99323.66;;;20.18;40.45
21988;BME280;11158;53.404;-1.510;2023-03-18T15:38:17;99347.88;;;18.48;44.30
21988;BME280;11158;53.404;-1.510;2023-03-18T15:41:05;99343.34;;;17.84;46.77
21988;BME280;11158;53.404;-1.510;2023-03-18T15:43:52;99348.09;;;17.71;46.75
21988;BME280;11158;53.404;-1.510;2023-03-18T15:46:36;99350.25;;;16.93;47.38
21988;BME280;11158;53.404;-1.510;2023-03-18T15:49:25;99339.03;;;17.83;45.65
21988;BME280;11158;53.404;-1.510;2023-03-18T15:52:14;99339.94;;;18.31;43.86
21988;BME280;11158;53.404;-1.510;2023-03-18T15:55:00;99346.78;;;18.96;43.03
21988;BME280;11158;53.404;-1.510;2023-03-18T15:57:44;99347.97;;;18.68;42.82
21988;BME280;11158;53.404;-1.510;2023-03-18T16:00:31;99346.22;;;18.04;44.62
21988;BME280;11158;53.404;-1.510;2023-03-18T16:03:24;99350.53;;;18.37;43.99
21988;BME280;11158;53.404;-1.510;2023-03-18T16:06:09;99359.72;;;17.99;44.48
21988;BME280;11158;53.404;-1.510;2023-03-18T16:08:53;99346.06;;;17.84;44.90
21988;BME280;11158;53.404;-1.510;2023-03-18T16:11:38;99357.59;;;18.06;44.26
21988;BME280;11158;53.404;-1.510;2023-03-18T16:14:34;99356.50;;;17.75;45.26
21988;BME280;11158;53.404;-1.510;2023-03-18T16:17:20;99364.03;;;18.80;43.12
21988;BME280;11158;53.404;-1.510;2023-03-18T16:23:05;99358.91;;;19.87;40.23
21988;BME280;11158;53.404;-1.510;2023-03-18T16:25:51;99371.31;;;18.37;43.42